Terminal Aerodrome Forecast
Issued by NWS Albany, NY

Home | Current Version | Previous Version | Text Only | Print | Product List | Glossary On
Versions: 1 2 3 4 5 6 7 8 9 10 11 12 13 14 15 16 17 18 19 20 21 22 23 24 25 26 27 28 29 30 31
000
FTUS41 KALY 250000 AAA
TAFALB
TAF AMD
KALB 250055Z 2501/2524 VRB02KT 1 1/2SM -DZ BR OVC004
      TEMPO 2501/2505 3/4SM -DZ BR OVC004
     FM250500 16006KT 2SM -DZ BR OVC006
      TEMPO 2505/2508 3/4SM -DZ BR OVC003
     FM250800 23010G15KT 2SM RA BR OVC008
     FM251100 25012G20KT P6SM VCSH OVC035
     FM251400 27020G32KT P6SM BKN040=

USA.gov is the U.S. government's official web portal to all federal, state and local government web resources and services.